Time;durP1;ratioP1;P1;durP2;ratioP2;P2;SDS_P1;SDS_P2;PMS_P1;PMS_P2;Temp;Humidity;BMP_temperature;BMP_pressure;BME280_temperature;BME280_humidity;BME280_pressure;Samples;Min_cycle;Max_cycle;Signal;HPM_P1;HPM_P2
2022/12/17 13:08:02;;;;;;;78.03;22.80;;;;;;;;;;4689711;30;20819;-36
2022/12/17 13:10:30;;;;;;;98.40;26.92;;;;;;;;;;4692238;30;20157;-41
2022/12/17 13:12:58;;;;;;;104.13;27.23;;;;;;;;;;4692735;30;20050;-42
2022/12/17 13:15:32;;;;;;;97.65;28.13;;;;;;;;;;4693248;30;20638;-40
2022/12/17 13:18:17;;;;;;;90.30;26.58;;;;;;;;;;4690749;30;20058;-42
2022/12/17 13:20:55;;;;;;;113.50;24.92;;;;;;;;;;4691939;30;20060;-42
2022/12/17 13:23:32;;;;;;;92.20;26.50;;;;;;;;;;4692806;30;20065;-41
2022/12/17 13:26:12;;;;;;;91.90;25.52;;;;;;;;;;4690524;30;20061;-50
2022/12/17 13:28:39;;;;;;;127.78;33.25;;;;;;;;;;4691835;30;20176;-46
2022/12/17 13:31:14;;;;;;;110.72;31.77;;;;;;;;;;4691968;30;20081;-48
2022/12/17 13:33:56;;;;;;;347.70;100.50;;;;;;;;;;4692519;30;20445;-40
2022/12/17 13:36:33;;;;;;;138.40;40.78;;;;;;;;;;4710811;30;20488;-36
2022/12/17 13:39:02;;;;;;;120.22;35.47;;;;;;;;;;4707691;30;20424;-36
2022/12/17 13:41:30;;;;;;;98.32;28.88;;;;;;;;;;4714559;30;20245;-38
2022/12/17 13:44:24;;;;;;;223.70;73.03;;;;;;;;;;4799733;29;20492;-45
2022/12/17 13:46:51;;;;;;;654.92;295.50;;;;;;;;;;4761578;30;20051;-43
2022/12/17 13:49:22;;;;;;;181.43;47.85;;;;;;;;;;4761784;30;20054;-36
2022/12/17 13:52:09;;;;;;;94.95;24.08;;;;;;;;;;4760347;30;20068;-46
2022/12/17 13:54:37;;;;;;;393.02;142.48;;;;;;;;;;4754118;30;20058;-42
2022/12/17 13:57:12;;;;;;;264.95;63.30;;;;;;;;;;4762365;30;20088;-40
2022/12/17 13:59:39;;;;;;;120.15;31.55;;;;;;;;;;4762490;30;20130;-45
2022/12/17 14:02:05;;;;;;;124.45;31.33;;;;;;;;;;4762387;30;20056;-37
2022/12/17 14:04:32;;;;;;;239.52;53.03;;;;;;;;;;4760813;30;20059;-46
2022/12/17 14:07:01;;;;;;;186.13;43.92;;;;;;;;;;4765907;30;20075;-40
2022/12/17 14:09:36;;;;;;;93.97;27.65;;;;;;;;;;4751240;30;20063;-39
2022/12/17 14:12:23;;;;;;;121.82;31.05;;;;;;;;;;4765386;30;20521;-39
2022/12/17 14:14:57;;;;;;;162.15;36.20;;;;;;;;;;4765461;30;20067;-44
2022/12/17 14:17:25;;;;;;;165.98;54.42;;;;;;;;;;4762091;30;20079;-41
2022/12/17 14:20:06;;;;;;;270.38;54.78;;;;;;;;;;4765467;30;20101;-43
2022/12/17 14:22:35;;;;;;;107.63;25.70;;;;;;;;;;4765448;30;20043;-37
2022/12/17 14:25:03;;;;;;;104.07;23.40;;;;;;;;;;4784185;29;20538;-36
2022/12/17 14:27:34;;;;;;;79.22;22.02;;;;;;;;;;4786757;29;20058;-43
2022/12/17 14:30:03;;;;;;;76.20;22.05;;;;;;;;;;4785831;29;20116;-36
2022/12/17 14:32:31;;;;;;;127.72;34.30;;;;;;;;;;4786030;29;20385;-44
2022/12/17 14:34:58;;;;;;;255.85;50.92;;;;;;;;;;4782475;29;20058;-44
2022/12/17 14:37:27;;;;;;;282.30;60.88;;;;;;;;;;4786060;29;20047;-39
2022/12/17 14:39:57;;;;;;;126.95;31.75;;;;;;;;;;4786117;29;20527;-36
2022/12/17 14:42:24;;;;;;;304.15;69.00;;;;;;;;;;4785375;29;20409;-37
2022/12/17 14:44:50;;;;;;;261.23;56.97;;;;;;;;;;4785373;29;20047;-44
2022/12/17 14:47:17;;;;;;;316.23;110.25;;;;;;;;;;4786167;29;20043;-39
2022/12/17 14:50:06;;;;;;;538.38;125.15;;;;;;;;;;4781993;29;20058;-40
2022/12/17 14:52:41;;;;;;;371.92;85.72;;;;;;;;;;4785159;29;20066;-46
2022/12/17 14:55:22;;;;;;;119.65;28.33;;;;;;;;;;4784635;29;20075;-40
2022/12/17 14:57:50;;;;;;;105.20;27.05;;;;;;;;;;4782787;30;20055;-38
2022/12/17 15:00:17;;;;;;;130.38;31.33;;;;;;;;;;4785501;29;20066;-41
2022/12/17 15:02:45;;;;;;;172.15;37.05;;;;;;;;;;4783832;29;20050;-46
2022/12/17 15:05:13;;;;;;;155.68;38.60;;;;;;;;;;4785046;29;20463;-48
2022/12/17 15:07:40;;;;;;;400.02;82.72;;;;;;;;;;4785344;29;20039;-37
2022/12/17 15:10:10;;;;;;;1092.13;329.70;;;;;;;;;;4802299;29;20084;-39
2022/12/17 15:12:38;;;;;;;1763.20;488.00;;;;;;;;;;4802525;29;20116;-43
2022/12/17 15:15:05;;;;;;;690.35;156.80;;;;;;;;;;4802351;29;20062;-39
2022/12/17 15:17:31;;;;;;;479.48;93.43;;;;;;;;;;4802633;29;20413;-41
2022/12/17 15:19:58;;;;;;;306.38;61.88;;;;;;;;;;4802808;29;20727;-38
2022/12/17 15:22:24;;;;;;;226.13;48.25;;;;;;;;;;4802686;29;20054;-38
2022/12/17 15:24:51;;;;;;;187.38;39.45;;;;;;;;;;4802557;29;20474;-40
2022/12/17 15:27:17;;;;;;;304.60;60.00;;;;;;;;;;4802779;29;20492;-41
2022/12/17 15:29:44;;;;;;;113.00;27.50;;;;;;;;;;4802322;29;20070;-37
2022/12/17 15:32:17;;;;;;;287.75;58.00;;;;;;;;;;4802541;29;20066;-45
2022/12/17 15:34:43;;;;;;;154.60;33.07;;;;;;;;;;4802630;29;20043;-37
2022/12/17 15:37:10;;;;;;;211.25;50.88;;;;;;;;;;4802723;29;20055;-37
2022/12/17 15:39:36;;;;;;;348.40;93.20;;;;;;;;;;4803118;29;20154;-36
2022/12/17 15:44:48;;;;;;;123.15;28.70;;;;;;;;;;4802100;29;20432;-43
2022/12/17 15:47:14;;;;;;;153.52;34.55;;;;;;;;;;4802872;29;20057;-43
2022/12/17 15:49:42;;;;;;;106.05;25.58;;;;;;;;;;4802045;29;20134;-36
2022/12/17 15:52:09;;;;;;;163.23;35.75;;;;;;;;;;4802146;29;20058;-39
2022/12/17 15:54:35;;;;;;;109.90;28.48;;;;;;;;;;4786525;29;20133;-50
2022/12/17 15:57:02;;;;;;;96.15;27.75;;;;;;;;;;4801615;29;20051;-38
2022/12/17 15:59:28;;;;;;;171.13;38.30;;;;;;;;;;4802278;29;20035;-38
2022/12/17 16:01:55;;;;;;;77.95;21.75;;;;;;;;;;4802073;29;20066;-39
2022/12/17 16:04:22;;;;;;;81.55;22.88;;;;;;;;;;4785641;29;20067;-36
2022/12/17 16:06:50;;;;;;;121.80;28.33;;;;;;;;;;4799442;29;20050;-43
2022/12/17 16:09:17;;;;;;;120.28;26.77;;;;;;;;;;4801876;29;20069;-42
2022/12/17 16:11:44;;;;;;;99.75;25.00;;;;;;;;;;4785440;29;20046;-48
2022/12/17 16:14:10;;;;;;;99.78;24.35;;;;;;;;;;4801789;29;20046;-47
2022/12/17 16:16:36;;;;;;;104.63;27.50;;;;;;;;;;4801745;29;20050;-36
2022/12/17 16:19:03;;;;;;;110.78;27.98;;;;;;;;;;4801887;29;20046;-41
2022/12/17 16:21:30;;;;;;;138.93;35.05;;;;;;;;;;4802331;29;20469;-41
2022/12/17 16:23:56;;;;;;;111.90;27.33;;;;;;;;;;4802580;29;20054;-37
2022/12/17 16:26:25;;;;;;;252.35;76.28;;;;;;;;;;4801228;29;20399;-37
2022/12/17 16:28:51;;;;;;;181.90;40.97;;;;;;;;;;4801690;29;20576;-37
2022/12/17 16:31:18;;;;;;;204.65;46.35;;;;;;;;;;4801600;29;20135;-37
2022/12/17 16:33:46;;;;;;;106.28;27.75;;;;;;;;;;4802597;29;20047;-38
2022/12/17 16:36:14;;;;;;;103.55;27.42;;;;;;;;;;4801413;29;20047;-45
2022/12/17 16:38:45;;;;;;;99.22;23.50;;;;;;;;;;4798454;29;20050;-37
2022/12/17 16:41:12;;;;;;;91.18;24.20;;;;;;;;;;4801073;29;20071;-39
2022/12/17 16:43:38;;;;;;;95.43;24.45;;;;;;;;;;4801344;29;20070;-36
2022/12/17 16:46:21;;;;;;;110.32;28.25;;;;;;;;;;4801333;29;20055;-39
2022/12/17 16:48:47;;;;;;;103.18;25.10;;;;;;;;;;4801724;29;20504;-37
2022/12/17 16:51:18;;;;;;;94.30;26.05;;;;;;;;;;4800597;29;20047;-36
2022/12/17 16:53:54;;;;;;;101.85;27.02;;;;;;;;;;4801110;29;20055;-36
2022/12/17 16:56:22;;;;;;;117.25;28.48;;;;;;;;;;4800579;29;20050;-36
2022/12/17 16:58:49;;;;;;;113.40;26.42;;;;;;;;;;4800546;29;20046;-36
2022/12/17 17:01:17;;;;;;;90.82;24.50;;;;;;;;;;4800044;29;20489;-36
2022/12/17 17:03:43;;;;;;;106.43;24.92;;;;;;;;;;4801258;29;20043;-36
2022/12/17 17:06:10;;;;;;;88.38;26.33;;;;;;;;;;4799987;29;20082;-36
2022/12/17 17:08:37;;;;;;;97.22;26.45;;;;;;;;;;4799366;29;20055;-36
2022/12/17 17:11:08;;;;;;;113.45;29.88;;;;;;;;;;4796542;29;20138;-36
2022/12/17 17:13:35;;;;;;;120.70;35.42;;;;;;;;;;4797782;29;20080;-42
2022/12/17 17:16:02;;;;;;;122.45;33.70;;;;;;;;;;4800763;29;20054;-37
2022/12/17 17:18:28;;;;;;;116.90;28.98;;;;;;;;;;4801732;29;20046;-38
2022/12/17 17:21:11;;;;;;;104.93;30.17;;;;;;;;;;4799890;29;20058;-43
2022/12/17 17:23:37;;;;;;;127.32;37.65;;;;;;;;;;4798419;29;20046;-38
2022/12/17 17:26:04;;;;;;;88.40;25.65;;;;;;;;;;4799853;29;20103;-38
2022/12/17 17:28:31;;;;;;;107.18;26.67;;;;;;;;;;4800318;29;20039;-39
2022/12/17 17:30:58;;;;;;;121.55;29.52;;;;;;;;;;4800019;29;20067;-42
2022/12/17 17:33:29;;;;;;;108.00;30.45;;;;;;;;;;4801068;29;20085;-39
2022/12/17 17:36:05;;;;;;;88.53;26.20;;;;;;;;;;4783648;29;20050;-37
2022/12/17 17:38:33;;;;;;;103.55;27.50;;;;;;;;;;4799081;29;20495;-37
2022/12/17 17:41:01;;;;;;;96.05;29.35;;;;;;;;;;4804276;29;20069;-37
2022/12/17 17:43:27;;;;;;;124.45;32.47;;;;;;;;;;4804775;29;20087;-41
2022/12/17 17:45:54;;;;;;;109.47;32.60;;;;;;;;;;4804934;29;20051;-37
2022/12/17 17:48:21;;;;;;;95.68;26.77;;;;;;;;;;4804824;29;20687;-37
2022/12/17 17:50:57;;;;;;;100.28;27.15;;;;;;;;;;4804403;29;20089;-37
2022/12/17 17:53:24;;;;;;;95.78;24.90;;;;;;;;;;4801451;29;20104;-55
2022/12/17 17:55:51;;;;;;;107.50;28.55;;;;;;;;;;4804403;29;20046;-55
2022/12/17 17:58:17;;;;;;;100.13;26.70;;;;;;;;;;4805521;29;20492;-42
2022/12/17 18:00:44;;;;;;;98.18;26.70;;;;;;;;;;4805080;29;20488;-37
2022/12/17 18:03:10;;;;;;;82.45;24.73;;;;;;;;;;4804017;29;20046;-37
2022/12/17 18:05:37;;;;;;;90.53;27.35;;;;;;;;;;4804218;29;20035;-41
2022/12/17 18:08:07;;;;;;;88.45;26.55;;;;;;;;;;4788197;29;20612;-36
2022/12/17 18:10:34;;;;;;;80.63;23.98;;;;;;;;;;4804135;29;20444;-36
2022/12/17 18:15:46;;;;;;;103.50;27.33;;;;;;;;;;4803719;29;20930;-36
2022/12/17 18:18:12;;;;;;;85.75;25.02;;;;;;;;;;4804028;29;20107;-36
2022/12/17 18:20:40;;;;;;;118.45;30.15;;;;;;;;;;4803659;29;20604;-36
2022/12/17 18:23:06;;;;;;;114.15;32.30;;;;;;;;;;4804555;29;20445;-43
2022/12/17 18:25:33;;;;;;;84.97;26.83;;;;;;;;;;4804065;29;20043;-44
2022/12/17 18:28:03;;;;;;;87.53;25.15;;;;;;;;;;4804229;29;20054;-39
2022/12/17 18:30:29;;;;;;;107.05;26.73;;;;;;;;;;4804609;29;20047;-37
2022/12/17 18:32:56;;;;;;;93.65;27.25;;;;;;;;;;4803480;29;20546;-38
2022/12/17 18:35:23;;;;;;;83.47;25.08;;;;;;;;;;4803449;29;20523;-42
2022/12/17 18:37:49;;;;;;;83.25;24.65;;;;;;;;;;4803692;29;20482;-38
2022/12/17 18:40:16;;;;;;;110.18;27.75;;;;;;;;;;4803579;29;21026;-44
2022/12/17 18:45:27;;;;;;;102.68;28.75;;;;;;;;;;4804858;29;20487;-44
2022/12/17 18:47:54;;;;;;;110.78;30.95;;;;;;;;;;4803355;29;20050;-45
2022/12/17 18:50:20;;;;;;;95.25;29.10;;;;;;;;;;4802675;29;20633;-50
2022/12/17 18:52:47;;;;;;;105.70;32.58;;;;;;;;;;4803231;29;20066;-41
2022/12/17 18:55:14;;;;;;;139.90;33.70;;;;;;;;;;4803221;29;20043;-38
2022/12/17 18:57:40;;;;;;;109.55;32.55;;;;;;;;;;4804574;29;20557;-45
2022/12/17 19:00:07;;;;;;;93.07;26.67;;;;;;;;;;4803766;29;20485;-45
2022/12/17 19:02:33;;;;;;;105.43;27.88;;;;;;;;;;4802704;29;20054;-42
2022/12/17 19:05:00;;;;;;;103.53;28.35;;;;;;;;;;4801088;29;20099;-43
2022/12/17 19:07:27;;;;;;;103.95;30.88;;;;;;;;;;4802358;29;20076;-37
2022/12/17 19:09:53;;;;;;;131.32;35.22;;;;;;;;;;4802978;29;20059;-41
2022/12/17 19:12:21;;;;;;;123.55;34.92;;;;;;;;;;4786011;29;20059;-40
2022/12/17 19:14:48;;;;;;;125.35;31.48;;;;;;;;;;4802497;29;20047;-37
2022/12/17 19:17:14;;;;;;;122.93;33.38;;;;;;;;;;4801976;29;20066;-38
2022/12/17 19:19:41;;;;;;;99.95;28.15;;;;;;;;;;4801878;29;20047;-36
2022/12/17 19:22:07;;;;;;;115.05;30.38;;;;;;;;;;4802030;29;20043;-37
2022/12/17 19:24:34;;;;;;;94.75;26.95;;;;;;;;;;4802667;29;20416;-37
2022/12/17 19:27:00;;;;;;;100.55;27.85;;;;;;;;;;4802714;29;20082;-39
2022/12/17 19:29:27;;;;;;;83.53;25.60;;;;;;;;;;4803307;29;20063;-40
2022/12/17 19:31:54;;;;;;;104.95;27.10;;;;;;;;;;4799417;29;20039;-48
2022/12/17 19:34:21;;;;;;;97.80;28.30;;;;;;;;;;4803434;29;20107;-37
2022/12/17 19:36:47;;;;;;;105.18;26.77;;;;;;;;;;4803396;29;20058;-38
2022/12/17 19:39:15;;;;;;;93.57;26.95;;;;;;;;;;4802610;29;20141;-39
2022/12/17 19:41:42;;;;;;;99.07;30.08;;;;;;;;;;4802344;29;20054;-40
2022/12/17 19:44:12;;;;;;;106.25;32.55;;;;;;;;;;4802671;29;20043;-49
2022/12/17 19:46:39;;;;;;;109.60;29.58;;;;;;;;;;4799698;29;20125;-37
2022/12/17 19:49:06;;;;;;;324.13;79.28;;;;;;;;;;4802732;29;20385;-41
2022/12/17 19:51:33;;;;;;;526.22;118.80;;;;;;;;;;4803109;29;20070;-38
2022/12/17 19:53:59;;;;;;;103.57;29.83;;;;;;;;;;4802445;29;20094;-42
2022/12/17 19:56:33;;;;;;;400.58;84.32;;;;;;;;;;4785174;29;20043;-37
2022/12/17 19:59:01;;;;;;;221.55;48.80;;;;;;;;;;4801724;29;20047;-39
2022/12/17 20:01:29;;;;;;;110.97;30.13;;;;;;;;;;4802472;29;20488;-40
2022/12/17 20:03:56;;;;;;;177.52;43.38;;;;;;;;;;4802893;29;20145;-46
2022/12/17 20:06:25;;;;;;;819.85;255.73;;;;;;;;;;4801620;29;20058;-50
2022/12/17 20:08:51;;;;;;;1034.75;284.63;;;;;;;;;;4800643;29;20500;-40
2022/12/17 20:11:33;;;;;;;222.63;55.53;;;;;;;;;;4801113;29;20566;-40
2022/12/17 20:14:03;;;;;;;372.48;81.03;;;;;;;;;;4800947;29;20050;-37
2022/12/17 20:16:31;;;;;;;166.25;42.58;;;;;;;;;;4785222;29;20553;-37
2022/12/17 20:18:59;;;;;;;300.08;64.95;;;;;;;;;;4802323;29;20111;-41
2022/12/17 20:21:25;;;;;;;248.75;59.30;;;;;;;;;;4802707;29;20070;-49
2022/12/17 20:23:52;;;;;;;269.23;60.97;;;;;;;;;;4801709;29;20077;-42
2022/12/17 20:26:19;;;;;;;174.75;45.13;;;;;;;;;;4801767;29;20496;-40
2022/12/17 20:28:45;;;;;;;256.65;59.92;;;;;;;;;;4802183;29;20400;-44
2022/12/17 20:31:12;;;;;;;297.08;75.15;;;;;;;;;;4801957;29;20057;-38
2022/12/17 20:33:39;;;;;;;145.48;44.28;;;;;;;;;;4801699;29;20073;-37
2022/12/17 20:36:07;;;;;;;142.45;42.60;;;;;;;;;;4797923;29;20541;-41
2022/12/17 20:38:34;;;;;;;552.47;117.75;;;;;;;;;;4801535;29;20047;-41
2022/12/17 20:41:06;;;;;;;97.97;31.70;;;;;;;;;;4800857;29;20115;-49
2022/12/17 20:43:33;;;;;;;320.90;71.53;;;;;;;;;;4801502;29;20973;-38
2022/12/17 20:46:00;;;;;;;156.27;40.35;;;;;;;;;;4801681;29;20057;-41
2022/12/17 20:48:26;;;;;;;96.00;31.02;;;;;;;;;;4801622;29;20168;-42
2022/12/17 20:50:53;;;;;;;123.45;33.33;;;;;;;;;;4797445;29;20488;-37
2022/12/17 20:53:19;;;;;;;105.50;31.85;;;;;;;;;;4801067;29;20051;-42
2022/12/17 20:55:46;;;;;;;194.85;49.42;;;;;;;;;;4801323;29;20039;-39
2022/12/17 20:58:14;;;;;;;192.55;50.05;;;;;;;;;;4801433;29;20053;-52
2022/12/17 21:00:40;;;;;;;238.38;58.70;;;;;;;;;;4801900;29;20054;-37
2022/12/17 21:03:07;;;;;;;149.00;43.38;;;;;;;;;;4801046;29;20145;-39
2022/12/17 21:05:34;;;;;;;154.15;44.33;;;;;;;;;;4800917;29;20047;-40
2022/12/17 21:08:01;;;;;;;96.00;33.53;;;;;;;;;;4797595;29;20515;-37
2022/12/17 21:10:27;;;;;;;355.88;76.20;;;;;;;;;;4798326;29;20057;-51
2022/12/17 21:15:39;;;;;;;129.68;38.30;;;;;;;;;;4799784;29;20129;-42
2022/12/17 21:18:05;;;;;;;220.80;54.38;;;;;;;;;;4800522;29;20419;-44
2022/12/17 21:20:32;;;;;;;132.98;38.45;;;;;;;;;;4800770;29;20050;-39
2022/12/17 21:22:58;;;;;;;132.18;40.33;;;;;;;;;;4801085;29;20481;-40
2022/12/17 21:25:25;;;;;;;122.30;34.95;;;;;;;;;;4801128;29;20067;-38
2022/12/17 21:27:51;;;;;;;131.40;34.63;;;;;;;;;;4785372;29;20062;-39
2022/12/17 21:30:18;;;;;;;129.57;34.95;;;;;;;;;;4801110;29;20050;-43
2022/12/17 21:32:44;;;;;;;130.80;35.83;;;;;;;;;;4800747;29;20051;-38
2022/12/17 21:35:11;;;;;;;135.98;39.40;;;;;;;;;;4800863;29;20042;-38
2022/12/17 21:37:37;;;;;;;101.68;29.98;;;;;;;;;;4801078;29;20161;-44
2022/12/17 21:40:04;;;;;;;116.38;29.88;;;;;;;;;;4801046;29;20078;-37
2022/12/17 21:45:16;;;;;;;122.10;37.05;;;;;;;;;;4800055;29;20066;-38
2022/12/17 21:47:42;;;;;;;351.83;130.43;;;;;;;;;;4800386;29;20054;-38
2022/12/17 21:50:09;;;;;;;282.45;65.28;;;;;;;;;;4800896;29;20063;-41
2022/12/17 21:52:35;;;;;;;233.68;56.28;;;;;;;;;;4800839;29;20058;-41
2022/12/17 21:55:02;;;;;;;154.57;38.60;;;;;;;;;;4800669;29;20061;-37
2022/12/17 21:57:29;;;;;;;109.50;31.15;;;;;;;;;;4801438;29;20523;-36
2022/12/17 21:59:55;;;;;;;129.85;34.33;;;;;;;;;;4800598;29;20607;-37
2022/12/17 22:02:22;;;;;;;240.75;64.22;;;;;;;;;;4800415;29;20051;-41
2022/12/17 22:04:48;;;;;;;168.23;45.45;;;;;;;;;;4800591;29;20357;-38
2022/12/17 22:07:15;;;;;;;106.35;29.35;;;;;;;;;;4800696;29;20075;-41
2022/12/17 22:09:49;;;;;;;119.70;30.92;;;;;;;;;;4782040;30;20143;-40
2022/12/17 22:15:20;;;;;;;83.90;25.60;;;;;;;;;;4781816;29;20043;-45
2022/12/17 22:17:52;;;;;;;96.93;30.52;;;;;;;;;;4782341;29;20068;-50
2022/12/17 22:20:19;;;;;;;125.70;34.42;;;;;;;;;;4782333;29;20108;-39
2022/12/17 22:22:46;;;;;;;96.15;28.60;;;;;;;;;;4782820;29;20122;-43
2022/12/17 22:25:13;;;;;;;104.85;25.52;;;;;;;;;;4783262;29;20408;-36
2022/12/17 22:27:39;;;;;;;117.78;33.55;;;;;;;;;;4786465;30;20138;-39
2022/12/17 22:32:58;;;;;;;111.82;30.67;;;;;;;;;;4783025;29;20078;-44
2022/12/17 22:35:25;;;;;;;103.15;30.48;;;;;;;;;;4785870;29;20047;-40
2022/12/17 22:38:12;;;;;;;225.43;89.55;;;;;;;;;;4783988;29;20126;-37
2022/12/17 22:41:06;;;;;;;173.93;54.60;;;;;;;;;;4783354;29;20075;-42
2022/12/17 22:43:52;;;;;;;127.32;35.70;;;;;;;;;;4786503;29;20062;-37
2022/12/17 22:46:39;;;;;;;160.20;39.42;;;;;;;;;;4785211;29;21292;-37
2022/12/17 22:49:05;;;;;;;153.40;42.97;;;;;;;;;;4785800;29;20059;-42
2022/12/17 22:51:32;;;;;;;100.95;29.20;;;;;;;;;;4786094;29;20047;-42
2022/12/17 22:54:09;;;;;;;119.70;35.65;;;;;;;;;;4783126;29;20058;-37
2022/12/17 22:56:37;;;;;;;101.70;30.95;;;;;;;;;;4784790;29;20036;-38
2022/12/17 22:59:23;;;;;;;104.28;30.25;;;;;;;;;;4781761;29;20051;-45
2022/12/17 23:01:50;;;;;;;108.00;28.55;;;;;;;;;;4785687;29;20048;-38
2022/12/17 23:04:16;;;;;;;100.43;28.02;;;;;;;;;;4785325;29;20043;-44
2022/12/17 23:06:46;;;;;;;82.40;25.60;;;;;;;;;;4785982;30;20047;-41
2022/12/17 23:09:20;;;;;;;79.80;23.55;;;;;;;;;;4796134;29;20051;-37
2022/12/17 23:11:46;;;;;;;;;;;;;;;;;;4800107;29;20126;-38
2022/12/17 23:14:13;;;;;;;89.03;21.35;;;;;;;;;;4803049;29;20015;-38
2022/12/17 23:16:40;;;;;;;77.20;21.25;;;;;;;;;;4803283;29;20046;-40
2022/12/17 23:19:07;;;;;;;82.05;20.45;;;;;;;;;;4803532;29;20047;-36
2022/12/17 23:21:33;;;;;;;59.90;19.90;;;;;;;;;;4803811;29;20051;-42
2022/12/17 23:24:00;;;;;;;87.32;22.27;;;;;;;;;;4803015;29;20108;-41
2022/12/17 23:26:28;;;;;;;103.53;28.13;;;;;;;;;;4802765;29;20504;-42
2022/12/17 23:28:57;;;;;;;68.15;19.90;;;;;;;;;;4802973;29;20603;-39
2022/12/17 23:31:24;;;;;;;84.32;25.27;;;;;;;;;;4802997;29;20043;-36
2022/12/17 23:33:50;;;;;;;73.70;19.55;;;;;;;;;;4803880;29;20066;-36
2022/12/17 23:36:18;;;;;;;67.82;18.15;;;;;;;;;;4802388;29;20050;-36
2022/12/17 23:38:46;;;;;;;60.95;17.70;;;;;;;;;;4802509;29;20047;-36
2022/12/17 23:41:15;;;;;;;74.97;19.58;;;;;;;;;;4802411;29;20393;-36
2022/12/17 23:43:42;;;;;;;55.08;18.27;;;;;;;;;;4802676;29;20106;-39
2022/12/17 23:46:09;;;;;;;90.50;20.75;;;;;;;;;;4803179;29;20069;-38
2022/12/17 23:48:37;;;;;;;75.57;22.55;;;;;;;;;;4803235;29;20050;-48
2022/12/17 23:51:12;;;;;;;73.57;20.30;;;;;;;;;;4802577;29;20053;-37
2022/12/17 23:53:38;;;;;;;65.35;19.17;;;;;;;;;;4802721;29;20054;-39
2022/12/17 23:56:09;;;;;;;67.50;21.08;;;;;;;;;;4802102;29;20050;-40
2022/12/17 23:58:37;;;;;;;73.07;20.45;;;;;;;;;;4802486;29;20046;-42
